createdAt,value
2017-12-02T00:01:55.401Z,3.92
2017-12-02T00:04:23.727Z,3.93
2017-12-02T00:06:53.396Z,3.91
2017-12-02T00:09:21.738Z,3.90
2017-12-02T00:11:50.045Z,3.89
2017-12-02T00:14:18.347Z,3.90
2017-12-02T00:16:46.684Z,3.90
2017-12-02T00:19:15.778Z,3.92
2017-12-02T00:21:44.864Z,3.95
2017-12-02T00:24:13.928Z,3.96
2017-12-02T00:26:42.294Z,3.95
2017-12-02T00:29:10.637Z,3.95
2017-12-02T00:31:38.967Z,3.95
2017-12-02T00:34:07.320Z,3.96
2017-12-02T00:36:35.646Z,3.98
2017-12-02T00:39:03.948Z,4.00
2017-12-02T00:41:33.017Z,4.02
2017-12-02T00:44:01.397Z,4.05
2017-12-02T00:46:29.664Z,4.07
2017-12-02T00:48:57.989Z,4.06
2017-12-02T00:51:27.066Z,4.08
2017-12-02T00:53:55.380Z,4.08
2017-12-02T00:56:25.028Z,4.07
2017-12-02T00:58:53.368Z,4.09
2017-12-02T01:01:22.429Z,4.08
2017-12-02T01:03:50.756Z,4.10
2017-12-02T01:06:19.840Z,4.10
2017-12-02T01:08:48.918Z,4.12
2017-12-02T01:11:17.244Z,4.14
2017-12-02T01:13:45.556Z,4.16
2017-12-02T01:16:13.881Z,4.18
2017-12-02T01:18:42.972Z,4.18
2017-12-02T01:21:12.045Z,4.19
2017-12-02T01:23:40.367Z,4.21
2017-12-02T01:26:09.464Z,4.22
2017-12-02T01:28:38.546Z,4.23
2017-12-02T01:31:08.373Z,4.25
2017-12-02T01:33:37.439Z,4.24
2017-12-02T01:36:05.758Z,4.23
2017-12-02T01:38:34.814Z,4.23
2017-12-02T01:41:03.154Z,4.21
2017-12-02T01:43:31.486Z,4.17
2017-12-02T01:45:59.793Z,4.13
2017-12-02T01:48:28.902Z,4.09
2017-12-02T01:50:57.963Z,4.04
2017-12-02T01:53:26.282Z,4.00
2017-12-02T01:55:54.618Z,3.97
2017-12-02T01:58:22.958Z,3.97
2017-12-02T02:00:52.314Z,3.99
2017-12-02T02:03:20.629Z,3.98
2017-12-02T02:05:49.714Z,3.97
2017-12-02T02:08:18.786Z,3.97
2017-12-02T02:10:47.096Z,3.96
2017-12-02T02:13:16.152Z,3.92
2017-12-02T02:15:44.487Z,3.90
2017-12-02T02:18:12.815Z,3.90
2017-12-02T02:20:41.116Z,3.88
2017-12-02T02:23:10.945Z,3.90
2017-12-02T02:25:40.134Z,3.93
2017-12-02T02:28:09.232Z,3.94
2017-12-02T02:30:38.312Z,3.90
2017-12-02T02:33:06.633Z,3.87
2017-12-02T02:35:35.748Z,3.80
2017-12-02T02:38:04.146Z,3.77
2017-12-02T02:40:32.460Z,3.74
2017-12-02T02:43:00.775Z,3.70
2017-12-02T02:45:29.877Z,3.67
2017-12-02T02:47:58.972Z,3.67
2017-12-02T02:50:28.044Z,3.67
2017-12-02T02:52:56.375Z,3.67
2017-12-02T02:55:24.700Z,3.67
2017-12-02T02:57:53.036Z,3.65
2017-12-02T03:00:21.348Z,3.65
2017-12-02T03:02:49.682Z,3.65
2017-12-02T03:05:18.784Z,3.63
2017-12-02T03:07:47.122Z,3.61
2017-12-02T03:10:15.448Z,3.58
2017-12-02T03:12:43.804Z,3.56
2017-12-02T03:15:12.898Z,3.53
2017-12-02T03:17:41.228Z,3.51
2017-12-02T03:20:09.564Z,3.50
2017-12-02T03:22:38.632Z,3.48
2017-12-02T03:25:06.957Z,3.48
2017-12-02T03:27:36.064Z,3.49
2017-12-02T03:30:04.368Z,3.51
2017-12-02T03:32:32.686Z,3.50
2017-12-02T03:35:01.037Z,3.49
2017-12-02T03:37:29.342Z,3.49
2017-12-02T03:39:57.683Z,3.53
2017-12-02T03:42:26.022Z,3.53
2017-12-02T03:44:55.094Z,3.48
2017-12-02T03:47:23.422Z,3.45
2017-12-02T03:49:52.504Z,3.43
2017-12-02T03:52:21.612Z,3.42
2017-12-02T03:54:50.798Z,3.45
2017-12-02T03:57:19.896Z,3.52
2017-12-02T03:59:48.224Z,3.63
2017-12-02T04:02:16.560Z,3.69
2017-12-02T04:04:44.925Z,3.70
2017-12-02T04:07:13.254Z,3.77
2017-12-02T04:09:41.562Z,3.82
2017-12-02T04:12:09.874Z,3.85
2017-12-02T04:14:38.211Z,3.89
2017-12-02T04:17:06.596Z,3.93
2017-12-02T04:19:34.915Z,3.94
2017-12-02T04:22:03.248Z,3.99
2017-12-02T04:24:31.557Z,4.09
2017-12-02T04:26:59.890Z,4.19
2017-12-02T04:29:28.315Z,4.36
2017-12-02T04:31:56.619Z,4.56
2017-12-02T04:34:24.934Z,4.67
2017-12-02T04:36:54.010Z,4.72
2017-12-02T04:39:23.116Z,4.70
2017-12-02T04:41:52.373Z,4.74
2017-12-02T04:44:20.702Z,4.87
2017-12-02T04:46:49.818Z,5.03
2017-12-02T04:49:18.138Z,5.12
2017-12-02T04:51:46.851Z,5.17
2017-12-02T04:54:15.162Z,5.23
2017-12-02T04:56:43.498Z,5.27
2017-12-02T04:59:11.796Z,5.33
2017-12-02T05:01:40.142Z,5.32
2017-12-02T05:04:08.458Z,5.24
2017-12-02T05:06:36.772Z,5.22
2017-12-02T05:09:05.846Z,5.26
2017-12-02T05:11:34.164Z,5.28
2017-12-02T05:14:02.486Z,5.31
2017-12-02T05:16:30.812Z,5.29
2017-12-02T05:18:59.898Z,5.23
2017-12-02T05:21:28.966Z,5.19
2017-12-02T05:23:57.316Z,5.24
2017-12-02T05:26:25.642Z,5.30
2017-12-02T05:28:54.728Z,5.37
2017-12-02T05:31:23.046Z,5.45
2017-12-02T05:33:52.134Z,5.46
2017-12-02T05:36:21.238Z,5.50
2017-12-02T05:38:50.324Z,5.49
2017-12-02T05:41:18.619Z,5.45
2017-12-02T05:43:47.690Z,5.38
2017-12-02T05:46:17.603Z,5.27
2017-12-02T05:48:46.270Z,5.25
2017-12-02T05:51:14.721Z,5.29
2017-12-02T05:53:43.033Z,5.28
2017-12-02T05:56:11.340Z,5.25
2017-12-02T05:58:39.639Z,5.24
2017-12-02T06:01:08.755Z,5.20
2017-12-02T06:03:37.931Z,5.17
2017-12-02T06:06:06.322Z,5.20
2017-12-02T06:08:35.450Z,5.15
2017-12-02T06:11:03.756Z,5.06
2017-12-02T06:13:32.058Z,4.97
2017-12-02T06:16:01.934Z,4.89
2017-12-02T06:18:30.276Z,4.80
2017-12-02T06:20:59.604Z,4.77
2017-12-02T06:23:27.920Z,4.82
2017-12-02T06:25:56.280Z,4.80
2017-12-02T06:28:24.780Z,4.73
2017-12-02T06:30:53.094Z,4.68
2017-12-02T06:33:22.169Z,4.61
2017-12-02T06:35:50.485Z,4.60
2017-12-02T06:38:19.555Z,4.64
2017-12-02T06:40:47.890Z,4.61
2017-12-02T06:43:16.202Z,4.58
2017-12-02T06:45:44.541Z,4.59
2017-12-02T06:48:12.842Z,4.58
2017-12-02T06:50:41.177Z,4.56
2017-12-02T06:53:09.522Z,4.51
2017-12-02T06:55:37.854Z,4.41
2017-12-02T06:58:06.922Z,4.37
2017-12-02T07:00:35.260Z,4.31
2017-12-02T07:03:03.563Z,4.24
2017-12-02T07:05:31.875Z,4.19
2017-12-02T07:08:00.976Z,4.12
2017-12-02T07:10:30.234Z,4.09
2017-12-02T07:12:59.815Z,4.07
2017-12-02T07:15:29.101Z,4.04
2017-12-02T07:18:00.786Z,4.03
2017-12-02T07:20:29.092Z,4.05
2017-12-02T07:22:57.408Z,4.15
2017-12-02T07:25:26.667Z,4.23
2017-12-02T07:27:54.972Z,4.30
2017-12-02T07:30:24.169Z,4.35
2017-12-02T07:32:53.223Z,4.44
2017-12-02T07:35:22.596Z,4.51
2017-12-02T07:37:51.077Z,4.50
2017-12-02T07:40:21.417Z,4.47
2017-12-02T07:42:50.902Z,4.46
2017-12-02T07:45:19.861Z,4.48
2017-12-02T07:47:48.745Z,4.56
2017-12-02T07:50:17.073Z,4.59
2017-12-02T07:52:45.826Z,4.57
2017-12-02T07:55:17.557Z,4.56
2017-12-02T07:57:48.152Z,4.52
2017-12-02T08:00:16.568Z,4.52
2017-12-02T08:02:46.766Z,4.58
2017-12-02T08:05:16.557Z,4.63
2017-12-02T08:07:44.899Z,4.69
2017-12-02T08:10:13.225Z,4.74
2017-12-02T08:12:41.567Z,4.80
2017-12-02T08:15:09.877Z,4.83
2017-12-02T08:17:38.285Z,4.81
2017-12-02T08:20:06.665Z,4.74
2017-12-02T08:22:36.035Z,4.68
2017-12-02T08:25:04.359Z,4.65
2017-12-02T08:27:33.555Z,4.58
2017-12-02T08:30:02.726Z,4.49
2017-12-02T08:32:31.077Z,4.48
2017-12-02T08:34:59.403Z,4.49
2017-12-02T08:37:27.744Z,4.51
2017-12-02T08:39:56.051Z,4.59
2017-12-02T08:42:24.352Z,4.63
2017-12-02T08:44:52.662Z,4.57
2017-12-02T08:47:22.027Z,4.49
2017-12-02T08:49:50.335Z,4.46
2017-12-02T08:52:19.471Z,4.42
2017-12-02T08:54:48.049Z,4.37
2017-12-02T08:57:16.661Z,4.48
2017-12-02T08:59:46.046Z,4.56
2017-12-02T09:02:15.266Z,4.50
2017-12-02T09:04:48.245Z,4.39
2017-12-02T09:07:17.379Z,4.31
2017-12-02T09:09:45.733Z,4.23
2017-12-02T09:12:14.053Z,4.17
2017-12-02T09:14:43.142Z,4.13
2017-12-02T09:17:11.466Z,4.13
2017-12-02T09:19:39.803Z,4.22
2017-12-02T09:22:08.153Z,4.40
2017-12-02T09:24:36.463Z,4.54
2017-12-02T09:27:04.785Z,4.61
2017-12-02T09:29:33.157Z,4.67
2017-12-02T09:32:02.242Z,4.74
2017-12-02T09:34:31.325Z,4.81
2017-12-02T09:37:00.413Z,4.82
2017-12-02T09:39:28.772Z,4.88
2017-12-02T09:41:57.423Z,4.99
2017-12-02T09:44:26.495Z,5.09
2017-12-02T09:46:56.315Z,5.24
2017-12-02T09:49:24.737Z,5.38
2017-12-02T09:51:55.111Z,5.45
2017-12-02T09:54:23.443Z,5.50
2017-12-02T09:56:51.750Z,5.50
2017-12-02T09:59:20.051Z,5.56
2017-12-02T10:01:51.814Z,5.58
2017-12-02T10:04:20.125Z,5.65
2017-12-02T10:06:49.533Z,5.72
2017-12-02T10:09:18.091Z,5.72
2017-12-02T10:11:46.399Z,5.73
2017-12-02T10:14:15.479Z,5.74
2017-12-02T10:16:45.263Z,5.73
2017-12-02T10:19:13.555Z,5.62
2017-12-02T10:21:41.918Z,5.51
2017-12-02T10:24:10.221Z,5.45
2017-12-02T10:26:38.537Z,5.44
2017-12-02T10:29:06.891Z,5.39
2017-12-02T10:31:35.977Z,5.34
2017-12-02T10:34:04.281Z,5.30
2017-12-02T10:36:32.593Z,5.28
2017-12-02T10:39:00.929Z,5.36
2017-12-02T10:41:29.243Z,5.43
2017-12-02T10:43:57.561Z,5.52
2017-12-02T10:46:25.876Z,5.61
2017-12-02T10:48:54.190Z,5.68
2017-12-02T10:51:22.497Z,5.72
2017-12-02T10:53:50.813Z,5.68
2017-12-02T10:56:19.111Z,5.62
2017-12-02T10:58:48.225Z,5.63
2017-12-02T11:01:17.259Z,5.73
2017-12-02T11:03:45.586Z,5.74
2017-12-02T11:06:14.717Z,5.73
2017-12-02T11:08:43.905Z,5.76
2017-12-02T11:11:12.321Z,6.07
2017-12-02T11:13:40.654Z,6.31
2017-12-02T11:16:09.747Z,6.58
2017-12-02T11:18:39.088Z,6.81
2017-12-02T11:21:08.203Z,7.01
2017-12-02T11:23:36.505Z,7.03
2017-12-02T11:26:04.803Z,6.85
2017-12-02T11:28:33.447Z,6.60
2017-12-02T11:31:02.570Z,6.46
2017-12-02T11:33:30.889Z,6.46
2017-12-02T11:35:59.203Z,6.54
2017-12-02T11:38:27.731Z,6.72
2017-12-02T11:40:56.073Z,6.79
2017-12-02T11:43:24.395Z,6.84
2017-12-02T11:45:53.471Z,6.91
2017-12-02T11:48:21.799Z,6.88
2017-12-02T11:50:50.859Z,6.83
2017-12-02T11:53:19.943Z,6.82
2017-12-02T11:55:48.263Z,6.83
2017-12-02T11:58:17.501Z,6.80
2017-12-02T12:00:45.802Z,6.81
2017-12-02T12:03:14.135Z,6.73
2017-12-02T12:05:43.207Z,6.67
2017-12-02T12:08:11.852Z,6.56
2017-12-02T12:10:40.152Z,6.43
2017-12-02T12:13:08.479Z,6.39
2017-12-02T12:15:37.551Z,6.38
2017-12-02T12:18:07.096Z,6.44
2017-12-02T12:20:35.432Z,6.54
2017-12-02T12:23:05.275Z,6.61
2017-12-02T12:25:34.361Z,6.74
2017-12-02T12:28:02.695Z,6.76
2017-12-02T12:30:31.011Z,6.70
2017-12-02T12:32:59.333Z,6.61
2017-12-02T12:35:29.101Z,6.54
2017-12-02T12:37:57.487Z,6.44
2017-12-02T12:40:27.296Z,6.35
2017-12-02T12:42:55.660Z,6.39
2017-12-02T12:45:24.015Z,6.47
2017-12-02T12:47:52.327Z,6.49
2017-12-02T12:50:20.642Z,6.52
2017-12-02T12:52:48.961Z,6.50
2017-12-02T12:55:17.262Z,6.44
2017-12-02T12:57:45.574Z,6.43
2017-12-02T13:00:13.895Z,6.41
2017-12-02T13:02:42.199Z,6.44
2017-12-02T13:05:10.535Z,6.50
2017-12-02T13:07:39.947Z,6.46
2017-12-02T13:10:08.577Z,6.35
2017-12-02T13:12:36.902Z,6.25
2017-12-02T13:15:05.975Z,6.22
2017-12-02T13:17:34.359Z,6.24
2017-12-02T13:20:03.455Z,6.32
2017-12-02T13:22:32.641Z,6.47
2017-12-02T13:25:01.011Z,6.60
2017-12-02T13:27:29.343Z,6.61
2017-12-02T13:29:58.491Z,6.55
2017-12-02T13:32:26.789Z,6.45
2017-12-02T13:34:55.101Z,6.41
2017-12-02T13:37:23.441Z,6.32
2017-12-02T13:39:51.740Z,6.32
2017-12-02T13:42:20.071Z,6.38
2017-12-02T13:44:48.395Z,6.38
2017-12-02T13:47:16.714Z,6.38
2017-12-02T13:49:45.876Z,6.43
2017-12-02T13:52:14.158Z,6.39
2017-12-02T13:54:42.488Z,6.27
2017-12-02T13:57:10.808Z,6.25
2017-12-02T13:59:39.175Z,6.32
2017-12-02T14:02:07.525Z,6.44
2017-12-02T14:04:36.604Z,6.59
2017-12-02T14:07:05.843Z,6.54
2017-12-02T14:09:34.146Z,6.37
2017-12-02T14:12:02.466Z,6.38
2017-12-02T14:14:31.539Z,6.41
2017-12-02T14:16:59.878Z,6.34
2017-12-02T14:19:28.190Z,6.26
2017-12-02T14:21:57.358Z,6.28
2017-12-02T14:24:25.659Z,6.42
2017-12-02T14:26:53.970Z,6.54
2017-12-02T14:29:23.845Z,6.52
2017-12-02T14:31:52.189Z,6.48
2017-12-02T14:34:21.355Z,6.64
2017-12-02T14:36:50.765Z,6.78
2017-12-02T14:39:19.193Z,6.85
2017-12-02T14:41:47.602Z,6.94
2017-12-02T14:44:16.013Z,6.82
2017-12-02T14:46:44.382Z,6.70
2017-12-02T14:49:12.771Z,6.80
2017-12-02T14:51:41.157Z,6.92
2017-12-02T14:54:09.954Z,6.86
2017-12-02T14:56:38.326Z,6.72
2017-12-02T14:59:07.554Z,6.62
2017-12-02T15:01:36.650Z,6.69
2017-12-02T15:04:06.573Z,6.64
2017-12-02T15:06:34.976Z,6.50
2017-12-02T15:09:05.480Z,6.41
2017-12-02T15:11:33.900Z,6.48
2017-12-02T15:14:02.209Z,6.53
2017-12-02T15:16:32.238Z,6.48
2017-12-02T15:19:01.069Z,6.48
2017-12-02T15:21:30.185Z,6.45
2017-12-02T15:23:58.494Z,6.37
2017-12-02T15:26:26.806Z,6.30
2017-12-02T15:28:55.155Z,6.17
2017-12-02T15:31:23.476Z,6.05
2017-12-02T15:33:52.556Z,5.95
2017-12-02T15:36:21.120Z,5.83
2017-12-02T15:38:49.443Z,5.70
2017-12-02T15:41:18.517Z,5.61
2017-12-02T15:43:47.014Z,5.51
2017-12-02T15:46:15.330Z,5.41
2017-12-02T15:48:44.442Z,5.35
2017-12-02T15:51:13.483Z,5.36
2017-12-02T15:53:43.996Z,5.37
2017-12-02T15:56:16.170Z,5.47
2017-12-02T15:58:45.006Z,5.42
2017-12-02T16:01:13.899Z,5.37
2017-12-02T16:03:43.009Z,5.35
2017-12-02T16:06:12.102Z,5.44
2017-12-02T16:08:41.188Z,5.42
2017-12-02T16:11:09.536Z,5.45
2017-12-02T16:13:37.864Z,5.43
2017-12-02T16:16:06.185Z,5.40
2017-12-02T16:18:34.494Z,5.47
2017-12-02T16:21:02.830Z,5.46
2017-12-02T16:23:31.138Z,5.40
2017-12-02T16:25:59.434Z,5.41
2017-12-02T16:28:27.785Z,5.52
2017-12-02T16:30:56.120Z,5.67
2017-12-02T16:33:25.204Z,5.68
2017-12-02T16:35:53.538Z,5.58
2017-12-02T16:38:21.832Z,5.56
2017-12-02T16:40:50.150Z,5.53
2017-12-02T16:43:19.230Z,5.56
2017-12-02T16:45:47.558Z,5.63
2017-12-02T16:48:15.884Z,5.72
2017-12-02T16:50:44.194Z,5.69
2017-12-02T16:53:12.511Z,5.62
2017-12-02T16:55:40.805Z,5.69
2017-12-02T16:58:09.136Z,5.73
2017-12-02T17:00:37.460Z,5.67
2017-12-02T17:03:05.836Z,5.65
2017-12-02T17:05:34.326Z,5.70
2017-12-02T17:08:02.657Z,5.73
2017-12-02T17:10:30.958Z,5.81
2017-12-02T17:13:00.023Z,5.76
2017-12-02T17:15:28.370Z,5.77
2017-12-02T17:17:56.664Z,5.78
2017-12-02T17:20:25.104Z,5.79
2017-12-02T17:22:55.660Z,5.82
2017-12-02T17:25:24.386Z,5.79
2017-12-02T17:27:54.024Z,5.81
2017-12-02T17:30:23.760Z,5.83
2017-12-02T17:32:52.074Z,5.81
2017-12-02T17:35:20.536Z,5.80
2017-12-02T17:37:48.990Z,5.79
2017-12-02T17:40:17.366Z,5.79
2017-12-02T17:42:48.182Z,5.78
2017-12-02T17:45:17.652Z,5.72
2017-12-02T17:47:46.944Z,5.61
2017-12-02T17:50:15.255Z,5.42
2017-12-02T17:52:46.316Z,5.32
2017-12-02T17:55:15.188Z,5.30
2017-12-02T17:57:43.496Z,5.37
2017-12-02T18:00:12.711Z,5.37
2017-12-02T18:02:41.880Z,5.34
2017-12-02T18:05:12.137Z,5.26
2017-12-02T18:07:40.893Z,5.22
2017-12-02T18:10:09.194Z,5.24
2017-12-02T18:12:39.269Z,5.17
2017-12-02T18:15:07.562Z,5.16
2017-12-02T18:17:36.439Z,5.18
2017-12-02T18:20:04.789Z,5.26
2017-12-02T18:22:33.145Z,5.30
2017-12-02T18:25:01.466Z,5.33
2017-12-02T18:27:34.200Z,5.34
2017-12-02T18:30:04.912Z,5.34
2017-12-02T18:32:38.270Z,5.40
2017-12-02T18:35:07.377Z,5.45
2017-12-02T18:37:39.945Z,5.44
2017-12-02T18:40:09.046Z,5.39
2017-12-02T18:42:38.277Z,5.46
2017-12-02T18:45:06.841Z,5.47
2017-12-02T18:47:35.906Z,5.46
2017-12-02T18:50:05.077Z,5.50
2017-12-02T18:52:33.394Z,5.53
2017-12-02T18:55:01.714Z,5.57
2017-12-02T18:57:30.031Z,5.53
2017-12-02T18:59:58.366Z,5.46
2017-12-02T19:02:26.684Z,5.45
2017-12-02T19:04:54.989Z,5.42
2017-12-02T19:07:23.321Z,5.43
2017-12-02T19:09:51.646Z,5.43
2017-12-02T19:12:20.077Z,5.44
2017-12-02T19:14:48.423Z,5.36
2017-12-02T19:17:17.563Z,5.29
2017-12-02T19:19:45.884Z,5.26
2017-12-02T19:22:14.229Z,5.31
2017-12-02T19:24:43.381Z,5.41
2017-12-02T19:27:11.693Z,5.45
2017-12-02T19:29:40.048Z,5.43
2017-12-02T19:32:09.140Z,5.47
2017-12-02T19:34:38.341Z,5.62
2017-12-02T19:37:07.407Z,5.56
2017-12-02T19:39:35.761Z,5.50
2017-12-02T19:42:04.102Z,5.47
2017-12-02T19:44:34.053Z,5.51
2017-12-02T19:47:02.559Z,5.54
2017-12-02T19:49:30.910Z,5.52
2017-12-02T19:52:00.073Z,5.49
2017-12-02T19:54:28.424Z,5.45
2017-12-02T19:56:56.876Z,5.45
2017-12-02T19:59:27.595Z,5.46
2017-12-02T20:01:56.188Z,5.58
2017-12-02T20:04:25.362Z,5.58
2017-12-02T20:06:54.421Z,5.66
2017-12-02T20:09:22.765Z,5.73
2017-12-02T20:11:51.841Z,5.75
2017-12-02T20:14:20.155Z,5.74
2017-12-02T20:16:49.450Z,5.74
2017-12-02T20:19:18.524Z,5.71
2017-12-02T20:21:46.843Z,5.64
2017-12-02T20:24:15.198Z,5.54
2017-12-02T20:26:44.321Z,5.53
2017-12-02T20:29:12.629Z,5.56
2017-12-02T20:31:40.942Z,5.54
2017-12-02T20:34:09.383Z,5.52
2017-12-02T20:36:37.877Z,5.57
2017-12-02T20:39:06.215Z,5.60
2017-12-02T20:41:35.327Z,5.55
2017-12-02T20:44:04.421Z,5.49
2017-12-02T20:46:33.484Z,5.53
2017-12-02T20:49:01.809Z,5.67
2017-12-02T20:51:30.177Z,5.67
2017-12-02T20:53:59.241Z,5.71
2017-12-02T20:56:29.069Z,5.76
2017-12-02T20:58:57.362Z,5.76
2017-12-02T21:01:26.468Z,5.82
2017-12-02T21:03:54.743Z,5.85
2017-12-02T21:06:23.869Z,5.88
2017-12-02T21:08:53.223Z,5.87
2017-12-02T21:11:21.714Z,5.82
2017-12-02T21:13:50.795Z,5.82
2017-12-02T21:16:19.151Z,5.88
2017-12-02T21:18:47.542Z,5.74
2017-12-02T21:21:16.961Z,5.81
2017-12-02T21:23:45.415Z,5.88
2017-12-02T21:26:13.806Z,5.84
2017-12-02T21:28:42.213Z,5.89
2017-12-02T21:31:10.538Z,5.90
2017-12-02T21:33:39.645Z,5.89
2017-12-02T21:36:08.779Z,5.82
2017-12-02T21:38:37.077Z,5.72
2017-12-02T21:41:05.415Z,5.65
2017-12-02T21:43:33.723Z,5.30
2017-12-02T21:46:02.027Z,5.22
2017-12-02T21:48:31.093Z,5.24
2017-12-02T21:50:59.405Z,5.17
2017-12-02T21:53:27.708Z,5.17
2017-12-02T21:55:56.948Z,5.23
2017-12-02T21:58:25.268Z,5.22
2017-12-02T22:00:53.579Z,5.22
2017-12-02T22:03:21.890Z,5.19
2017-12-02T22:05:51.048Z,5.19
2017-12-02T22:08:20.139Z,5.19
2017-12-02T22:10:49.226Z,5.13
2017-12-02T22:13:18.311Z,5.05
2017-12-02T22:15:46.617Z,5.00
2017-12-02T22:18:14.962Z,4.95
2017-12-02T22:20:46.655Z,4.89
2017-12-02T22:23:14.967Z,4.89
2017-12-02T22:25:43.297Z,4.86
2017-12-02T22:28:11.635Z,4.86
2017-12-02T22:30:39.949Z,4.84
2017-12-02T22:33:08.275Z,4.91
2017-12-02T22:35:37.363Z,4.92
2017-12-02T22:38:05.679Z,4.94
2017-12-02T22:40:34.048Z,5.00
2017-12-02T22:43:02.371Z,5.06
2017-12-02T22:45:30.700Z,5.03
2017-12-02T22:47:59.795Z,5.03
2017-12-02T22:50:28.876Z,5.10
2017-12-02T22:52:57.313Z,5.16
2017-12-02T22:55:25.628Z,5.22
2017-12-02T22:57:53.928Z,5.21
2017-12-02T23:00:23.007Z,5.18
2017-12-02T23:02:51.323Z,5.16
2017-12-02T23:05:19.660Z,5.14
2017-12-02T23:07:47.985Z,5.12
2017-12-02T23:10:16.309Z,5.13
2017-12-02T23:12:44.641Z,5.16
2017-12-02T23:15:13.729Z,5.22
2017-12-02T23:17:42.856Z,5.23
2017-12-02T23:20:11.196Z,5.19
2017-12-02T23:22:40.999Z,5.25
2017-12-02T23:25:09.337Z,5.31
2017-12-02T23:27:37.641Z,5.31
2017-12-02T23:30:05.961Z,5.37
2017-12-02T23:32:34.283Z,5.37
2017-12-02T23:35:02.607Z,5.35
2017-12-02T23:37:30.942Z,5.38
2017-12-02T23:40:00.142Z,5.37
2017-12-02T23:42:28.559Z,5.35
2017-12-02T23:44:56.877Z,5.38
2017-12-02T23:47:25.968Z,5.36
2017-12-02T23:49:54.282Z,5.34
2017-12-02T23:52:23.404Z,5.42
2017-12-02T23:54:51.731Z,5.39
2017-12-02T23:57:20.816Z,5.37
2017-12-02T23:59:49.884Z,5.33
